createdAt,value
2018-03-30T00:01:45.041Z,2.4
2018-03-30T00:04:45.027Z,2.6
2018-03-30T00:07:45.012Z,2.3
2018-03-30T00:10:45.057Z,2.9
2018-03-30T00:13:45.002Z,2.6
2018-03-30T00:16:45.049Z,3
2018-03-30T00:19:44.988Z,2.4
2018-03-30T00:22:45.016Z,2.7
2018-03-30T00:25:45.029Z,2.3
2018-03-30T00:28:44.989Z,2.4
2018-03-30T00:31:45.025Z,2.3
2018-03-30T00:34:45.088Z,2.4
2018-03-30T00:37:44.991Z,3.2
2018-03-30T00:40:45.013Z,2.7
2018-03-30T00:43:45.009Z,2.5
2018-03-30T00:46:45.014Z,2.2
2018-03-30T00:49:45.009Z,2.3
2018-03-30T00:52:44.998Z,2.7
2018-03-30T00:55:45.260Z,2.3
2018-03-30T00:58:45.040Z,2.4
2018-03-30T01:01:45.005Z,2.4
2018-03-30T01:04:45.002Z,2.3
2018-03-30T01:07:45.059Z,2.3
2018-03-30T01:10:44.993Z,2.3
2018-03-30T01:13:44.997Z,2.5
2018-03-30T01:16:44.995Z,2.3
2018-03-30T01:19:44.985Z,2.5
2018-03-30T01:22:45.015Z,2.3
2018-03-30T01:25:44.975Z,2.2
2018-03-30T01:28:45.036Z,2.4
2018-03-30T01:31:44.990Z,2.3
2018-03-30T01:34:44.962Z,2.4
2018-03-30T01:37:44.982Z,2.5
2018-03-30T01:40:44.977Z,2.2
2018-03-30T01:43:45.022Z,2.6
2018-03-30T01:46:45.013Z,2.2
2018-03-30T01:49:44.978Z,2.2
2018-03-30T01:52:45.008Z,2.9
2018-03-30T01:55:45.005Z,2.5
2018-03-30T01:58:44.971Z,2.4
2018-03-30T02:01:45.015Z,2.2
2018-03-30T02:04:44.967Z,2.4
2018-03-30T02:07:45.036Z,2.3
2018-03-30T02:10:45.070Z,2.3
2018-03-30T02:13:44.962Z,2.2
2018-03-30T02:16:45.092Z,2.4
2018-03-30T02:19:45.228Z,2.3
2018-03-30T02:22:44.958Z,2.3
2018-03-30T02:25:44.946Z,2.4
2018-03-30T02:28:44.955Z,2.7
2018-03-30T02:31:44.976Z,2.3
2018-03-30T02:34:44.979Z,2.4
2018-03-30T02:37:44.979Z,2.2
2018-03-30T02:40:45.000Z,2.2
2018-03-30T02:43:44.961Z,2.3
2018-03-30T02:46:45.006Z,2.3
2018-03-30T02:49:45.036Z,2.3
2018-03-30T02:52:44.983Z,2.3
2018-03-30T02:55:44.996Z,2.3
2018-03-30T02:58:44.972Z,2.3
2018-03-30T03:01:44.960Z,2.6
2018-03-30T03:04:44.982Z,2.5
2018-03-30T03:07:45.040Z,2.3
2018-03-30T03:10:44.929Z,2.3
2018-03-30T03:13:44.948Z,2.3
2018-03-30T03:16:44.967Z,2.4
2018-03-30T03:19:44.955Z,2.2
2018-03-30T03:22:44.948Z,2.2
2018-03-30T03:25:44.949Z,2.8
2018-03-30T03:28:45.394Z,2.4
2018-03-30T03:31:44.994Z,2.3
2018-03-30T03:34:44.934Z,2.3
2018-03-30T03:37:44.966Z,2.2
2018-03-30T03:40:44.935Z,2.2
2018-03-30T03:43:44.923Z,2.3
2018-03-30T03:46:44.962Z,2.3
2018-03-30T03:49:44.936Z,2.3
2018-03-30T03:52:44.980Z,2.1
2018-03-30T03:55:44.929Z,2.3
2018-03-30T03:58:44.932Z,2.2
2018-03-30T04:01:45.004Z,2.4
2018-03-30T04:04:44.975Z,2
2018-03-30T04:07:44.983Z,2.1
2018-03-30T04:10:44.951Z,2.8
2018-03-30T04:13:44.936Z,2.2
2018-03-30T04:16:45.061Z,2.2
2018-03-30T04:19:44.924Z,2.1
2018-03-30T04:22:44.953Z,2.3
2018-03-30T04:25:44.945Z,2.1
2018-03-30T04:28:44.920Z,2.1
2018-03-30T04:31:45.092Z,2.1
2018-03-30T04:34:44.913Z,2.2
2018-03-30T04:37:44.947Z,2.2
2018-03-30T04:40:44.941Z,2.1
2018-03-30T04:43:44.915Z,1.9
2018-03-30T04:46:44.925Z,2.1
2018-03-30T04:49:44.900Z,1.9
2018-03-30T04:52:44.964Z,2.2
2018-03-30T04:55:44.926Z,2
2018-03-30T04:58:44.922Z,2.3
2018-03-30T05:01:44.947Z,2.2
2018-03-30T05:04:44.905Z,1.9
2018-03-30T05:07:44.929Z,2.2
2018-03-30T05:10:44.909Z,2.1
2018-03-30T05:13:44.907Z,2.2
2018-03-30T05:16:44.928Z,2.1
2018-03-30T05:19:44.900Z,2.2
2018-03-30T05:22:44.966Z,2.2
2018-03-30T05:25:44.895Z,2.4
2018-03-30T05:28:44.903Z,2.1
2018-03-30T05:31:44.953Z,2.2
2018-03-30T05:34:44.902Z,2
2018-03-30T05:37:44.894Z,2
2018-03-30T05:40:44.938Z,2.4
2018-03-30T05:43:44.912Z,1.9
2018-03-30T05:46:44.975Z,2.2
2018-03-30T05:49:44.899Z,2.1
2018-03-30T05:52:44.918Z,2
2018-03-30T05:55:45.181Z,2.2
2018-03-30T05:58:44.929Z,2.2
2018-03-30T06:01:44.904Z,2
2018-03-30T06:04:44.887Z,2.1
2018-03-30T06:07:44.887Z,2
2018-03-30T06:10:44.917Z,2.1
2018-03-30T06:13:44.913Z,1.9
2018-03-30T06:16:44.974Z,2.1
2018-03-30T06:19:44.880Z,2
2018-03-30T06:22:44.927Z,2.1
2018-03-30T06:25:44.883Z,2.1
2018-03-30T06:28:44.966Z,1.9
2018-03-30T06:31:44.883Z,2
2018-03-30T06:34:44.882Z,2.1
2018-03-30T06:37:44.906Z,1.9
2018-03-30T06:40:44.898Z,2.1
2018-03-30T06:43:44.875Z,2.1
2018-03-30T06:46:44.897Z,2.1
2018-03-30T06:49:44.867Z,2
2018-03-30T06:52:44.914Z,1.9
2018-03-30T06:55:44.913Z,2
2018-03-30T06:58:44.951Z,1.9
2018-03-30T07:01:44.865Z,2
2018-03-30T07:04:44.888Z,2.1
2018-03-30T07:07:44.881Z,1.9
2018-03-30T07:10:44.885Z,1.9
2018-03-30T07:13:44.860Z,1.9
2018-03-30T07:16:44.869Z,1.9
2018-03-30T07:19:44.863Z,1.8
2018-03-30T07:22:44.868Z,2.2
2018-03-30T07:25:44.990Z,2
2018-03-30T07:28:44.858Z,1.9
2018-03-30T07:31:44.858Z,1.9
2018-03-30T07:34:44.907Z,1.8
2018-03-30T07:37:44.861Z,1.8
2018-03-30T07:40:44.848Z,1.7
2018-03-30T07:43:45.080Z,1.7
2018-03-30T07:46:44.906Z,1.7
2018-03-30T07:49:44.889Z,1.9
2018-03-30T07:52:44.864Z,2.1
2018-03-30T07:55:44.852Z,1.8
2018-03-30T07:58:44.858Z,1.7
2018-03-30T08:01:44.839Z,1.9
2018-03-30T08:04:44.933Z,1.8
2018-03-30T08:07:44.871Z,1.8
2018-03-30T08:10:44.882Z,2.2
2018-03-30T08:13:44.871Z,1.8
2018-03-30T08:16:44.985Z,1.9
2018-03-30T08:19:45.686Z,1.7
2018-03-30T08:22:44.873Z,2
2018-03-30T08:25:44.863Z,1.7
2018-03-30T08:28:44.873Z,1.8
2018-03-30T08:31:44.852Z,1.9
2018-03-30T08:34:44.946Z,1.9
2018-03-30T08:37:44.852Z,1.8
2018-03-30T08:40:44.840Z,1.6
2018-03-30T08:43:44.839Z,1.8
2018-03-30T08:46:44.840Z,1.8
2018-03-30T08:49:45.002Z,2.1
2018-03-30T08:52:44.858Z,5.1
2018-03-30T08:55:44.846Z,6
2018-03-30T08:58:44.864Z,10.6
2018-03-30T09:01:44.830Z,7.2
2018-03-30T09:04:44.859Z,5
2018-03-30T09:07:45.042Z,6.7
2018-03-30T09:10:45.113Z,3.4
2018-03-30T09:13:44.877Z,4.4
2018-03-30T09:16:44.838Z,3.8
2018-03-30T09:19:44.864Z,4
2018-03-30T09:22:44.862Z,4.1
2018-03-30T09:25:45.002Z,4.2
2018-03-30T09:28:44.939Z,6.3
2018-03-30T09:31:45.198Z,3.9
2018-03-30T09:34:45.235Z,5.8
2018-03-30T09:37:45.258Z,3.3
2018-03-30T09:40:45.223Z,4.4
2018-03-30T09:43:45.151Z,3.6
2018-03-30T09:46:45.184Z,3.5
2018-03-30T09:49:45.950Z,5.5
2018-03-30T09:52:47.177Z,6.5
2018-03-30T09:55:45.042Z,6.6
2018-03-30T09:58:45.064Z,5.9
2018-03-30T10:01:44.838Z,8.5
2018-03-30T10:04:44.861Z,7.8
2018-03-30T10:07:44.927Z,10.6
2018-03-30T10:10:44.822Z,7.7
2018-03-30T10:13:44.830Z,9.4
2018-03-30T10:16:44.824Z,10.4
2018-03-30T10:19:44.934Z,6.3
2018-03-30T10:22:44.860Z,4.9
2018-03-30T10:25:44.890Z,7.4
2018-03-30T10:28:44.817Z,5
2018-03-30T10:31:44.811Z,5.2
2018-03-30T10:34:44.823Z,3.5
2018-03-30T10:37:44.907Z,4.9
2018-03-30T10:40:44.846Z,4.9
2018-03-30T10:43:44.828Z,5.5
2018-03-30T10:46:44.850Z,5.9
2018-03-30T10:49:44.846Z,5.4
2018-03-30T10:52:44.855Z,3.4
2018-03-30T10:55:44.859Z,4.3
2018-03-30T10:58:44.821Z,4.5
2018-03-30T11:01:44.790Z,2.8
2018-03-30T11:04:44.801Z,5.6
2018-03-30T11:07:44.814Z,4.3
2018-03-30T11:10:44.808Z,3.4
2018-03-30T11:13:44.805Z,2.3
2018-03-30T11:16:44.841Z,2.6
2018-03-30T11:19:44.800Z,4
2018-03-30T11:22:44.798Z,5.4
2018-03-30T11:25:44.809Z,6
2018-03-30T11:28:44.785Z,4
2018-03-30T11:31:44.817Z,3.6
2018-03-30T11:34:44.849Z,4.5
2018-03-30T11:37:44.851Z,4.3
2018-03-30T11:40:44.866Z,4.5
2018-03-30T11:43:44.790Z,2.9
2018-03-30T11:46:44.869Z,5.1
2018-03-30T11:49:44.797Z,4.8
2018-03-30T11:52:44.785Z,3.1
2018-03-30T11:55:44.852Z,2.4
2018-03-30T11:58:44.862Z,2.9
2018-03-30T12:01:44.805Z,2.9
2018-03-30T12:04:44.770Z,3.1
2018-03-30T12:07:44.783Z,2.8
2018-03-30T12:10:44.760Z,3.7
2018-03-30T12:13:44.764Z,2.1
2018-03-30T12:16:44.862Z,2.5
2018-03-30T12:19:44.793Z,2.1
2018-03-30T12:22:44.779Z,2.4
2018-03-30T12:25:44.775Z,2.5
2018-03-30T12:28:44.758Z,2.2
2018-03-30T12:31:44.789Z,2.7
2018-03-30T12:34:44.774Z,4.8
2018-03-30T12:37:44.805Z,3.5
2018-03-30T12:40:44.805Z,2.4
2018-03-30T12:43:44.794Z,4.2
2018-03-30T12:46:45.070Z,5.4
2018-03-30T12:49:44.775Z,3.2
2018-03-30T12:52:44.766Z,3
2018-03-30T12:55:44.776Z,3.4
2018-03-30T12:58:44.786Z,2.4
2018-03-30T13:01:44.765Z,3
2018-03-30T13:04:44.772Z,2.2
2018-03-30T13:07:44.782Z,4.5
2018-03-30T13:10:44.773Z,4.2
2018-03-30T13:13:44.813Z,2.1
2018-03-30T13:16:44.760Z,3.4
2018-03-30T13:19:44.772Z,3.2
2018-03-30T13:22:44.974Z,2
2018-03-30T13:25:44.737Z,3.2
2018-03-30T13:28:44.810Z,2.2
2018-03-30T13:31:44.757Z,2.8
2018-03-30T13:34:44.754Z,3.1
2018-03-30T13:37:44.764Z,2.1
2018-03-30T13:40:44.760Z,2.1
2018-03-30T13:43:44.764Z,2
2018-03-30T13:46:44.833Z,1.6
2018-03-30T13:49:44.820Z,2.9
2018-03-30T13:52:44.800Z,2.2
2018-03-30T13:55:44.738Z,2.3
2018-03-30T13:58:44.816Z,1.5
2018-03-30T14:01:44.754Z,2
2018-03-30T14:04:44.758Z,2.1
2018-03-30T14:07:44.742Z,2
2018-03-30T14:10:44.739Z,1.9
2018-03-30T14:13:45.080Z,1.8
2018-03-30T14:16:44.806Z,1.9
2018-03-30T14:19:44.878Z,1.5
2018-03-30T14:22:44.922Z,1.6
2018-03-30T14:25:44.746Z,2.5
2018-03-30T14:28:45.024Z,1.7
2018-03-30T14:31:44.758Z,1.6
2018-03-30T14:34:45.336Z,5.2
2018-03-30T14:37:44.892Z,4.8
2018-03-30T14:40:44.765Z,5.3
2018-03-30T14:43:44.776Z,10.4
2018-03-30T14:46:44.787Z,5.6
2018-03-30T14:49:44.770Z,6.4
2018-03-30T14:52:44.760Z,2.7
2018-03-30T14:55:44.733Z,4.2
2018-03-30T14:58:44.737Z,4.5
2018-03-30T15:01:44.726Z,5.7
2018-03-30T15:04:44.768Z,5.5
2018-03-30T15:07:44.728Z,3.5
2018-03-30T15:12:54.272Z,5.6
2018-03-30T15:15:54.295Z,3.9
2018-03-30T15:22:30.459Z,4.7
2018-03-30T15:25:31.363Z,3.6
2018-03-30T15:28:30.519Z,2.8
2018-03-30T15:31:30.599Z,2.3
2018-03-30T15:34:30.472Z,3.4
2018-03-30T15:37:30.491Z,2.6
2018-03-30T15:40:30.526Z,3.6
2018-03-30T15:43:30.516Z,4.1
2018-03-30T15:46:30.523Z,5.7
2018-03-30T15:49:30.499Z,1.6
2018-03-30T15:52:30.505Z,3.4
2018-03-30T15:55:30.503Z,2.6
2018-03-30T15:58:30.491Z,4.2
2018-03-30T16:01:30.531Z,3.9
2018-03-30T16:04:30.494Z,3
2018-03-30T16:07:30.473Z,3.4
2018-03-30T16:10:30.486Z,2.4
2018-03-30T16:13:30.531Z,1.6
2018-03-30T16:16:30.545Z,3.6
2018-03-30T16:19:30.542Z,3.6
2018-03-30T16:22:30.477Z,1.6
2018-03-30T16:25:30.502Z,2.9
2018-03-30T16:28:30.494Z,5.7
2018-03-30T16:31:30.468Z,4.4
2018-03-30T16:34:30.480Z,4.2
2018-03-30T16:37:30.492Z,3.4
2018-03-30T16:40:30.464Z,4.1
2018-03-30T16:43:30.477Z,4.8
2018-03-30T16:46:30.468Z,8.9
2018-03-30T16:49:30.570Z,5.6
2018-03-30T16:52:30.500Z,5.4
2018-03-30T16:55:30.489Z,5.9
2018-03-30T16:58:30.490Z,4.9
2018-03-30T17:01:30.566Z,2.7
2018-03-30T17:04:30.448Z,4.6
2018-03-30T17:07:30.442Z,4.1
2018-03-30T17:10:30.509Z,4.4
2018-03-30T17:13:30.437Z,4
2018-03-30T17:16:30.445Z,3.3
2018-03-30T17:19:30.454Z,4.3
2018-03-30T17:22:30.495Z,3.8
2018-03-30T17:25:30.496Z,2.4
2018-03-30T17:28:30.650Z,3.3
2018-03-30T17:31:30.457Z,3.7
2018-03-30T17:34:30.456Z,2.7
2018-03-30T17:37:30.456Z,3.5
2018-03-30T17:40:30.467Z,3.7
2018-03-30T17:43:30.465Z,2.1
2018-03-30T17:46:30.441Z,3.2
2018-03-30T17:49:30.481Z,3.5
2018-03-30T17:52:30.691Z,7.5
2018-03-30T17:55:30.436Z,7.9
2018-03-30T17:58:31.101Z,2.6
2018-03-30T18:01:30.447Z,3.4
2018-03-30T18:04:32.341Z,3
2018-03-30T18:07:30.512Z,3.9
2018-03-30T18:10:30.432Z,2.5
2018-03-30T18:13:31.017Z,3.7
2018-03-30T18:16:30.709Z,4.1
2018-03-30T18:19:30.589Z,2.5
2018-03-30T18:22:30.505Z,2.2
2018-03-30T18:25:30.965Z,4
2018-03-30T18:28:30.485Z,4.3
2018-03-30T18:31:30.434Z,2.4
2018-03-30T18:34:30.447Z,2
2018-03-30T18:37:30.447Z,3.2
2018-03-30T18:40:30.442Z,2.6
2018-03-30T18:46:03.031Z,2.7
2018-03-30T18:49:03.047Z,1.8
2018-03-30T18:52:03.061Z,2.1
2018-03-30T18:55:03.075Z,3.9
2018-03-30T19:09:18.133Z,5.4
2018-03-30T19:14:38.156Z,5.7
2018-03-30T19:17:38.079Z,4.8
2018-03-30T19:20:38.110Z,5.6
2018-03-30T19:23:38.051Z,3.4
2018-03-30T19:26:38.053Z,3.8
2018-03-30T19:32:13.638Z,4.2
2018-03-30T19:35:13.682Z,5.2
2018-03-30T19:38:13.640Z,3.7
2018-03-30T19:41:13.664Z,2.6
2018-03-30T19:47:56.236Z,2.2
2018-03-30T19:56:07.389Z,3.2
2018-03-30T19:59:07.056Z,2.8
2018-03-30T20:02:07.099Z,2.5
2018-03-30T20:05:06.691Z,2.7
2018-03-30T20:08:07.390Z,5
2018-03-30T20:11:07.060Z,2.8
2018-03-30T20:14:07.053Z,4.8
2018-03-30T20:17:07.050Z,2.8
2018-03-30T20:20:07.060Z,4.2
2018-03-30T20:23:07.243Z,2.7
2018-03-30T20:26:07.201Z,3.2
2018-03-30T20:29:06.467Z,2.3
2018-03-30T20:32:06.448Z,3.7
2018-03-30T20:35:06.447Z,3.1
2018-03-30T20:38:06.435Z,3.8
2018-03-30T20:41:06.440Z,3
2018-03-30T20:44:06.429Z,3
2018-03-30T20:47:06.462Z,3.9
2018-03-30T20:50:06.477Z,2.3
2018-03-30T20:53:06.507Z,2.7
2018-03-30T20:56:06.723Z,2.8
2018-03-30T20:59:06.479Z,3.3
2018-03-30T21:02:06.437Z,2.2
2018-03-30T21:05:06.437Z,3.6
2018-03-30T21:08:06.419Z,3
2018-03-30T21:11:06.422Z,2.7
2018-03-30T21:14:06.810Z,1.7
2018-03-30T21:17:06.415Z,1.9
2018-03-30T21:20:06.447Z,2.5
2018-03-30T21:23:06.418Z,3.3
2018-03-30T21:26:06.413Z,2.4
2018-03-30T21:29:06.807Z,3.4
2018-03-30T21:32:06.405Z,2.7
2018-03-30T21:35:06.512Z,1.6
2018-03-30T21:38:06.415Z,2.4
2018-03-30T21:41:06.425Z,1.8
2018-03-30T21:44:06.459Z,1.7
2018-03-30T21:47:06.655Z,1.8
2018-03-30T21:50:06.461Z,2.1
2018-03-30T21:53:06.415Z,2.4
2018-03-30T21:56:06.418Z,1.7
2018-03-30T21:59:06.390Z,1.9
2018-03-30T22:02:06.532Z,1.8
2018-03-30T22:05:06.456Z,3.1
2018-03-30T22:08:06.424Z,1.7
2018-03-30T22:11:06.396Z,3.7
2018-03-30T22:14:06.419Z,2
2018-03-30T22:17:06.435Z,3.2
2018-03-30T22:20:06.427Z,3.2
2018-03-30T22:23:06.408Z,1.9
2018-03-30T22:26:07.094Z,1.8
2018-03-30T22:29:06.460Z,2.1
2018-03-30T22:32:06.409Z,1.7
2018-03-30T22:35:06.408Z,1.5
2018-03-30T22:38:06.420Z,1.9
2018-03-30T22:41:06.376Z,1.6
2018-03-30T22:44:06.402Z,1.8
2018-03-30T22:47:06.370Z,1.8
2018-03-30T22:50:06.493Z,1.7
2018-03-30T22:53:06.428Z,1.7
2018-03-30T22:56:06.365Z,1.6
2018-03-30T22:59:06.406Z,1.5
2018-03-30T23:02:06.443Z,1.9
2018-03-30T23:05:06.366Z,1.9
2018-03-30T23:08:06.365Z,1.8
2018-03-30T23:11:06.367Z,1.6
2018-03-30T23:14:06.350Z,1.7
2018-03-30T23:17:06.386Z,1.7
2018-03-30T23:20:06.364Z,1.5
2018-03-30T23:23:06.409Z,1.5
2018-03-30T23:26:06.358Z,1.6
2018-03-30T23:29:06.411Z,1.7
2018-03-30T23:32:06.392Z,1.9
2018-03-30T23:35:06.379Z,1.5
2018-03-30T23:38:06.385Z,1.7
2018-03-30T23:41:06.353Z,1.8
2018-03-30T23:44:06.383Z,1.5
2018-03-30T23:47:06.367Z,1.8
2018-03-30T23:50:06.389Z,1.7
2018-03-30T23:53:06.420Z,1.5
2018-03-30T23:56:06.375Z,2
2018-03-30T23:59:06.430Z,1.5
